| time (UTC) | temp C | wind direction | speed KPH | gust KPH | rain 1hr cm | rain 24hr cm | rain mn cm | humidity % | barometer mb |
| 20260902231559 | 32 | 229 | 3.2 | 12.9 | 0.00 | 0.00 | 0.00 | 67 | 1013.6 |
| 20260902230054 | 33 | 214 | 1.6 | 11.3 | 0.00 | 0.00 | 0.00 | 67 | 1013.5 |
| 20260902224549 | 33 | 230 | 8.0 | 17.7 | 0.00 | 0.00 | 0.00 | 65 | 1013.5 |
| 20260902223046 | 33 | 256 | 3.2 | 17.7 | 0.00 | 0.00 | 0.00 | 64 | 1013.6 |
| 20260902221553 | 33 | 204 | 8.0 | 19.3 | 0.00 | 0.00 | 0.00 | 63 | 1013.7 |
| 20260902220043 | 34 | 210 | 6.4 | 16.1 | 0.00 | 0.00 | 0.00 | 62 | 1013.6 |
| 20260902214543 | 34 | 243 | 6.4 | 17.7 | 0.00 | 0.00 | 0.00 | 63 | 1013.5 |
| 20260902213043 | 34 | 252 | 11.3 | 17.7 | 0.00 | 0.00 | 0.00 | 60 | 1013.5 |
| 20260902211536 | 34 | 186 | 8.0 | 20.9 | 0.00 | 0.00 | 0.00 | 60 | 1013.6 |
| 20260902210037 | 34 | 214 | 12.9 | 20.9 | 0.00 | 0.00 | 0.00 | 58 | 1013.6 |
| 20260902204529 | 35 | 240 | 3.2 | 17.7 | 0.00 | 0.00 | 0.00 | 61 | 1013.6 |
| 20260902203025 | 34 | 196 | 8.0 | 24.1 | 0.00 | 0.00 | 0.00 | 60 | 1013.9 |
| 20260902201522 | 34 | 205 | 3.2 | 22.5 | 0.00 | 0.00 | 0.00 | 61 | 1013.9 |
| 20260902200021 | 34 | 207 | 9.7 | 20.9 | 0.00 | 0.00 | 0.00 | 61 | 1014.1 |
| 20260902194518 | 34 | 238 | 9.7 | 24.1 | 0.00 | 0.00 | 0.00 | 60 | 1014.1 |
| 20260902193011 | 34 | 151 | 4.8 | 19.3 | 0.00 | 0.00 | 0.00 | 62 | 1014.4 |
| 20260902191513 | 34 | 237 | 8.0 | 20.9 | 0.00 | 0.00 | 0.00 | 61 | 1014.5 |
| 20260902190009 | 33 | 212 | 9.7 | 19.3 | 0.00 | 0.00 | 0.00 | 62 | 1014.8 |
| 20260902184502 | 33 | 240 | 12.9 | 22.5 | 0.00 | 0.00 | 0.00 | 61 | 1014.8 |
| 20260902183113 | 33 | 211 | 12.9 | 24.1 | 0.00 | 0.00 | 0.00 | 62 | 1014.9 |
| 20260902181555 | 33 | 207 | 11.3 | 22.5 | 0.00 | 0.00 | 0.00 | 62 | 1015.1 |
| 20260902180051 | 33 | 217 | 9.7 | 17.7 | 0.00 | 0.00 | 0.00 | 64 | 1015.1 |
| 20260902174556 | 33 | 211 | 12.9 | 24.1 | 0.00 | 0.00 | 0.00 | 64 | 1015.4 |
| 20260902173044 | 32 | 211 | 4.8 | 17.7 | 0.00 | 0.00 | 0.00 | 66 | 1015.4 |
| 20260902171541 | 32 | 260 | 6.4 | 17.7 | 0.00 | 0.00 | 0.00 | 65 | 1015.6 |
| 20260902170037 | 32 | 184 | 9.7 | 22.5 | 0.00 | 0.00 | 0.00 | 65 | 1015.7 |
| 20260902164535 | 32 | 226 | 6.4 | 17.7 | 0.00 | 0.00 | 0.00 | 66 | 1016.0 |
| 20260902163028 | 32 | 233 | 4.8 | 24.1 | 0.00 | 0.00 | 0.00 | 68 | 1015.8 |
| 20260902161523 | 31 | 261 | 9.7 | 17.7 | 0.00 | 0.00 | 0.00 | 68 | 1016.0 |
| 20260902160028 | 31 | 207 | 8.0 | 17.7 | 0.00 | 0.00 | 0.00 | 70 | 1016.0 |
| 20260902154521 | 31 | 278 | 6.4 | 16.1 | 0.00 | 0.00 | 0.00 | 71 | 1016.1 |
| 20260902153014 | 30 | 205 | 3.2 | 17.7 | 0.00 | 0.00 | 0.00 | 72 | 1016.0 |
| 20260902151510 | 30 | 243 | 6.4 | 17.7 | 0.00 | 0.00 | 0.00 | 73 | 1016.1 |
| 20260902150008 | 29 | 225 | 9.7 | 19.3 | 0.00 | 0.00 | 0.00 | 74 | 1016.1 |
| 20260902144501 | 29 | 243 | 4.8 | 16.1 | 0.00 | 0.00 | 0.00 | 75 | 1016.0 |
| 20260902143101 | 28 | 231 | 4.8 | 20.9 | 0.00 | 0.00 | 0.00 | 76 | 1016.1 |
| 20260902141555 | 28 | 210 | 6.4 | 16.1 | 0.00 | 0.00 | 0.00 | 75 | 1015.9 |
| 20260902140053 | 28 | 252 | 6.4 | 14.5 | 0.00 | 0.00 | 0.00 | 76 | 1015.9 |
| 20260902134550 | 27 | 242 | 4.8 | 12.9 | 0.00 | 0.00 | 0.00 | 77 | 1016.3 |
| 20260902133043 | 27 | 237 | 4.8 | 14.5 | 0.00 | 0.00 | 0.00 | 78 | 1016.4 |
| 20260902131540 | 26 | 249 | 3.2 | 14.5 | 0.00 | 0.00 | 0.00 | 79 | 1016.3 |
| 20260902130039 | 26 | 232 | 6.4 | 16.1 | 0.00 | 0.00 | 0.00 | 80 | 1016.5 |
| 20260902124537 | 25 | 236 | 6.4 | 14.5 | 0.00 | 0.00 | 0.00 | 81 | 1016.3 |
| 20260902123033 | 25 | 208 | 4.8 | 12.9 | 0.00 | 0.00 | 0.00 | 82 | 1016.3 |
| 20260902121529 | 25 | 266 | 3.2 | 9.7 | 0.00 | 0.00 | 0.00 | 83 | 1016.3 |
| 20260902120027 | 24 | 197 | 3.2 | 14.5 | 0.00 | 0.00 | 0.00 | 84 | 1016.4 |
| 20260902114542 | 24 | 229 | 1.6 | 9.7 | 0.00 | 0.00 | 0.00 | 86 | 1016.3 |
| 20260902113019 | 23 | 238 | 1.6 | 8.0 | 0.00 | 0.00 | 0.00 | 87 | 1016.2 |
| 20260902111518 | 23 | 231 | 1.6 | 6.4 | 0.00 | 0.00 | 0.00 | 88 | 1016.1 |
| 20260902110013 | 23 | 160 | 0.0 | 3.2 | 0.00 | 0.00 | 0.00 | 88 | 1016.0 |
| 20260902104512 | 23 | 216 | 0.0 | 1.6 | 0.00 | 0.00 | 0.00 | 88 | 1015.8 |
| 20260902103010 | 23 | 214 | 0.0 | 3.2 | 0.00 | 0.00 | 0.00 | 88 | 1015.6 |
| 20260902101506 | 23 | 214 | 1.6 | 9.7 | 0.00 | 0.00 | 0.00 | 87 | 1015.5 |
| 20260902100003 | 23 | 188 | 3.2 | 8.0 | 0.00 | 0.00 | 0.00 | 87 | 1015.4 |
| 20260902094501 | 23 | 216 | 0.0 | 4.8 | 0.00 | 0.00 | 0.00 | 87 | 1015.3 |
| 20260902093113 | 23 | 221 | 1.6 | 8.0 | 0.00 | 0.00 | 0.00 | 87 | 1015.2 |
| 20260902091557 | 24 | 210 | 0.0 | 4.8 | 0.00 | 0.00 | 0.00 | 87 | 1015.2 |
| 20260902090055 | 24 | 189 | 0.0 | 1.6 | 0.00 | 0.00 | 0.00 | 87 | 1015.3 |
| 20260902084555 | 24 | 214 | 0.0 | 3.2 | 0.00 | 0.00 | 0.00 | 87 | 1015.4 |
| 20260902083050 | 24 | 172 | 1.6 | 6.4 | 0.00 | 0.00 | 0.00 | 87 | 1015.2 |
| 20260902081549 | 24 | 219 | 0.0 | 3.2 | 0.00 | 0.00 | 0.00 | 87 | 1015.2 |
| 20260902080048 | 25 | 175 | 1.6 | 6.4 | 0.00 | 0.00 | 0.00 | 86 | 1015.1 |
| 20260902074544 | 25 | 226 | 1.6 | 8.0 | 0.00 | 0.00 | 0.00 | 86 | 1015.2 |
| 20260902073045 | 25 | 182 | 1.6 | 9.7 | 0.00 | 0.00 | 0.00 | 86 | 1015.2 |
| 20260902071545 | 25 | 235 | 4.8 | 11.3 | 0.00 | 0.00 | 0.00 | 86 | 1015.1 |
| 20260902070035 | 25 | 183 | 3.2 | 9.7 | 0.00 | 0.00 | 0.00 | 86 | 1015.2 |
| 20260902064539 | 25 | 217 | 3.2 | 9.7 | 0.00 | 0.00 | 0.00 | 87 | 1015.1 |
| 20260902063030 | 25 | 198 | 3.2 | 9.7 | 0.00 | 0.00 | 0.00 | 86 | 1015.1 |
| 20260902061527 | 26 | 227 | 3.2 | 9.7 | 0.00 | 0.00 | 0.00 | 86 | 1015.3 |
| 20260902060023 | 26 | 221 | 1.6 | 8.0 | 0.00 | 0.00 | 0.00 | 85 | 1015.3 |
| 20260902054533 | 26 | 202 | 1.6 | 9.7 | 0.00 | 0.00 | 0.00 | 85 | 1015.3 |
| 20260902053021 | 26 | 187 | 3.2 | 11.3 | 0.00 | 0.00 | 0.00 | 86 | 1015.3 |
| 20260902051516 | 26 | 233 | 3.2 | 9.7 | 0.00 | 0.00 | 0.00 | 86 | 1015.2 |
| 20260902050025 | 26 | 230 | 1.6 | 11.3 | 0.00 | 0.00 | 0.00 | 86 | 1015.1 |
| 20260902044509 | 26 | 193 | 1.6 | 8.0 | 0.00 | 0.00 | 0.00 | 86 | 1015.2 |
| 20260902043011 | 26 | 170 | 3.2 | 8.0 | 0.00 | 0.00 | 0.00 | 85 | 1015.2 |
| 20260902041502 | 26 | 192 | 1.6 | 8.0 | 0.00 | 0.00 | 0.00 | 85 | 1015.2 |
| 20260902040058 | 26 | 199 | 0.0 | 8.0 | 0.00 | 0.00 | 0.00 | 84 | 1015.2 |
| 20260902034557 | 27 | 201 | 1.6 | 8.0 | 0.00 | 0.00 | 0.00 | 84 | 1015.1 |
| 20260902033054 | 27 | 227 | 0.0 | 4.8 | 0.00 | 0.00 | 0.00 | 84 | 1015.1 |
| 20260902031604 | 27 | 167 | 1.6 | 6.4 | 0.00 | 0.00 | 0.00 | 83 | 1015.2 |
| 20260902030053 | 27 | 193 | 0.0 | 6.4 | 0.00 | 0.00 | 0.00 | 83 | 1015.2 |
| 20260902024556 | 27 | 224 | 1.6 | 6.4 | 0.00 | 0.33 | 0.00 | 82 | 1015.2 |
| 20260902023059 | 28 | 224 | 0.0 | 6.4 | 0.00 | 0.33 | 0.00 | 82 | 1015.1 |
| 20260902021550 | 28 | 216 | 0.0 | 1.6 | 0.00 | 0.33 | 0.00 | 82 | 1015.1 |
| 20260902020042 | 28 | 162 | 0.0 | 3.2 | 0.00 | 0.33 | 0.00 | 82 | 1015.0 |
| 20260902014542 | 28 | 226 | 1.6 | 4.8 | 0.00 | 0.33 | 0.00 | 82 | 1015.0 |
| 20260902013038 | 28 | 221 | 0.0 | 1.6 | 0.00 | 0.33 | 0.00 | 82 | 1015.0 |
| 20260902011536 | 29 | 147 | 0.0 | 1.6 | 0.00 | 0.33 | 0.00 | 80 | 1014.9 |
| 20260902010037 | 30 | 244 | 0.0 | 1.6 | 0.00 | 0.33 | 0.00 | 79 | 1014.7 |
| 20260902004534 | 30 | 239 | 0.0 | 3.2 | 0.00 | 0.33 | 0.00 | 78 | 1014.6 |
| 20260902003032 | 30 | 230 | 0.0 | 3.2 | 0.00 | 0.33 | 0.00 | 76 | 1014.6 |
| 20260902001530 | 31 | 236 | 0.0 | 6.4 | 0.00 | 0.33 | 0.00 | 74 | 1014.5 |
| 20260902000027 | 31 | 257 | 3.2 | 6.4 | 0.00 | 0.33 | 0.00 | 73 | 1014.6 |
| 20260901234522 | 32 | 197 | 0.0 | 8.0 | 0.00 | 0.33 | 0.00 | 71 | 1014.6 |
| 20260901233043 | 32 | 231 | 1.6 | 8.0 | 0.00 | 0.33 | 0.00 | 69 | 1014.6 |